📊 Raw Sensor Data

Showing records 32626 to 32650 of 84,718 total

ID Distance (ft) Battery V Battery A Int Temp (°F) Int Humid (%) Ext Temp (°F) Solar V RSSI SNR Time Stamp
52105 14.8 4.02 -5 66 48 67 0.00 -71 7 09/15/2025 09:15 PM
52104 14.8 4.02 -5 68 49 68 0.00 -71 8 09/15/2025 09:00 PM
52103 14.8 3.96 -5 69 50 69 0.00 -71 7 09/15/2025 08:45 PM
52102 14.8 3.96 -5 70 51 71 0.00 -70 8 09/15/2025 08:30 PM
52101 14.8 3.97 -5 72 52 70 0.00 -71 8 09/15/2025 08:15 PM
52100 14.8 4.02 -5 75 53 72 0.00 -71 7 09/15/2025 08:00 PM
52099 14.9 3.97 -5 77 54 75 0.00 -72 7 09/15/2025 07:45 PM
52098 14.9 3.97 -5 80 56 78 0.50 -71 8 09/15/2025 07:30 PM
52097 14.9 3.96 -10 85 56 80 3.30 -72 8 09/15/2025 07:15 PM
52096 14.9 4.03 0 93 53 86 4.50 -72 7 09/15/2025 07:00 PM
52095 14.8 4.05 10 99 50 90 4.50 -72 7 09/15/2025 06:45 PM
52094 14.9 4.03 5 103 49 92 5.10 -72 8 09/15/2025 06:15 PM
52093 14.9 4.02 5 104 49 94 5.10 -75 8 09/15/2025 06:00 PM
52092 15.0 4.02 5 105 48 93 5.10 -75 8 09/15/2025 05:45 PM
52091 15.0 4.07 5 107 47 93 5.10 -75 8 09/15/2025 05:30 PM
52090 15.0 4.02 0 109 46 94 5.10 -75 8 09/15/2025 05:15 PM
52089 15.1 4.04 5 108 46 94 5.10 -74 7 09/15/2025 05:00 PM
52088 15.0 4.02 0 108 46 95 5.10 -75 7 09/15/2025 04:45 PM
52087 15.1 4.02 5 108 46 98 5.10 -74 8 09/15/2025 04:30 PM
52086 15.0 4.02 0 109 46 92 5.10 -73 8 09/15/2025 04:15 PM
52085 15.1 4.02 0 111 45 93 5.10 -75 8 09/15/2025 04:00 PM
52084 15.1 4.02 0 113 42 98 5.10 -77 8 09/15/2025 03:45 PM
52083 15.1 4.02 0 113 41 99 5.20 -75 7 09/15/2025 03:30 PM
52082 15.1 4.02 5 111 41 98 5.20 -76 8 09/15/2025 03:15 PM
52081 15.1 4.01 5 110 41 96 5.10 -74 8 09/15/2025 03:00 PM